sensor_id;sensor_type;location;lat;lon;timestamp;P1;durP1;ratioP1;P2;durP2;ratioP2
13793;SDS011;31160;49.500;7.772;2023-05-23T00:00:14;33.77;;;25.03;;
13793;SDS011;31160;49.500;7.772;2023-05-23T00:02:41;35.50;;;24.87;;
13793;SDS011;31160;49.500;7.772;2023-05-23T00:05:09;36.97;;;26.20;;
13793;SDS011;31160;49.500;7.772;2023-05-23T00:07:35;39.23;;;26.93;;
13793;SDS011;31160;49.500;7.772;2023-05-23T00:10:02;35.17;;;25.67;;
13793;SDS011;31160;49.500;7.772;2023-05-23T00:12:30;35.87;;;26.77;;
13793;SDS011;31160;49.500;7.772;2023-05-23T00:14:56;38.10;;;26.23;;
13793;SDS011;31160;49.500;7.772;2023-05-23T00:17:23;37.73;;;26.80;;
13793;SDS011;31160;49.500;7.772;2023-05-23T00:19:51;38.33;;;27.00;;
13793;SDS011;31160;49.500;7.772;2023-05-23T00:22:18;34.60;;;26.00;;
13793;SDS011;31160;49.500;7.772;2023-05-23T00:24:44;39.03;;;27.30;;
13793;SDS011;31160;49.500;7.772;2023-05-23T00:27:11;35.53;;;26.23;;
13793;SDS011;31160;49.500;7.772;2023-05-23T00:29:38;38.60;;;26.77;;
13793;SDS011;31160;49.500;7.772;2023-05-23T00:32:05;37.70;;;27.33;;
13793;SDS011;31160;49.500;7.772;2023-05-23T00:34:32;37.17;;;26.53;;
13793;SDS011;31160;49.500;7.772;2023-05-23T00:36:59;34.50;;;24.63;;
13793;SDS011;31160;49.500;7.772;2023-05-23T00:39:27;29.37;;;23.13;;
13793;SDS011;31160;49.500;7.772;2023-05-23T00:41:54;32.13;;;24.03;;
13793;SDS011;31160;49.500;7.772;2023-05-23T00:44:22;31.70;;;24.70;;
13793;SDS011;31160;49.500;7.772;2023-05-23T00:46:52;33.40;;;25.03;;
13793;SDS011;31160;49.500;7.772;2023-05-23T00:49:21;36.47;;;27.30;;
13793;SDS011;31160;49.500;7.772;2023-05-23T00:51:49;34.97;;;24.67;;
13793;SDS011;31160;49.500;7.772;2023-05-23T00:54:17;33.13;;;24.07;;
13793;SDS011;31160;49.500;7.772;2023-05-23T00:56:49;34.27;;;24.63;;
13793;SDS011;31160;49.500;7.772;2023-05-23T00:59:15;31.50;;;25.07;;
13793;SDS011;31160;49.500;7.772;2023-05-23T01:01:42;31.40;;;24.27;;
13793;SDS011;31160;49.500;7.772;2023-05-23T01:04:12;32.03;;;24.00;;
13793;SDS011;31160;49.500;7.772;2023-05-23T01:06:39;34.27;;;24.67;;
13793;SDS011;31160;49.500;7.772;2023-05-23T01:09:06;33.03;;;24.00;;
13793;SDS011;31160;49.500;7.772;2023-05-23T01:11:41;27.87;;;22.30;;
13793;SDS011;31160;49.500;7.772;2023-05-23T01:14:16;30.93;;;22.83;;
13793;SDS011;31160;49.500;7.772;2023-05-23T01:16:58;30.83;;;23.73;;
13793;SDS011;31160;49.500;7.772;2023-05-23T01:30:19;30.40;;;22.33;;
13793;SDS011;31160;49.500;7.772;2023-05-23T01:32:47;32.73;;;23.73;;
13793;SDS011;31160;49.500;7.772;2023-05-23T01:35:17;31.33;;;23.80;;
13793;SDS011;31160;49.500;7.772;2023-05-23T01:37:48;27.73;;;22.87;;
13793;SDS011;31160;49.500;7.772;2023-05-23T01:40:15;32.03;;;24.50;;
13793;SDS011;31160;49.500;7.772;2023-05-23T01:42:42;36.97;;;28.13;;
13793;SDS011;31160;49.500;7.772;2023-05-23T01:45:09;30.40;;;24.83;;
13793;SDS011;31160;49.500;7.772;2023-05-23T01:47:36;30.93;;;24.00;;
13793;SDS011;31160;49.500;7.772;2023-05-23T01:50:06;33.13;;;25.07;;
13793;SDS011;31160;49.500;7.772;2023-05-23T01:52:34;31.13;;;23.67;;
13793;SDS011;31160;49.500;7.772;2023-05-23T01:55:02;29.17;;;21.57;;
13793;SDS011;31160;49.500;7.772;2023-05-23T01:57:35;26.77;;;21.77;;
13793;SDS011;31160;49.500;7.772;2023-05-23T02:00:03;28.80;;;21.63;;
13793;SDS011;31160;49.500;7.772;2023-05-23T02:02:38;23.97;;;20.03;;
13793;SDS011;31160;49.500;7.772;2023-05-23T02:05:06;23.17;;;19.07;;
13793;SDS011;31160;49.500;7.772;2023-05-23T02:07:34;24.87;;;19.37;;
13793;SDS011;31160;49.500;7.772;2023-05-23T02:10:02;24.57;;;18.23;;
13793;SDS011;31160;49.500;7.772;2023-05-23T02:12:29;25.80;;;19.60;;
13793;SDS011;31160;49.500;7.772;2023-05-23T02:14:57;26.67;;;19.43;;
13793;SDS011;31160;49.500;7.772;2023-05-23T02:17:23;28.27;;;21.73;;
13793;SDS011;31160;49.500;7.772;2023-05-23T02:19:50;27.07;;;21.33;;
13793;SDS011;31160;49.500;7.772;2023-05-23T02:22:17;28.20;;;22.20;;
13793;SDS011;31160;49.500;7.772;2023-05-23T02:24:49;23.30;;;20.80;;
13793;SDS011;31160;49.500;7.772;2023-05-23T02:27:17;27.73;;;22.00;;
13793;SDS011;31160;49.500;7.772;2023-05-23T02:29:44;25.43;;;20.80;;
13793;SDS011;31160;49.500;7.772;2023-05-23T02:32:11;27.80;;;22.23;;
13793;SDS011;31160;49.500;7.772;2023-05-23T02:34:38;28.50;;;21.40;;
13793;SDS011;31160;49.500;7.772;2023-05-23T02:37:05;26.87;;;21.30;;
13793;SDS011;31160;49.500;7.772;2023-05-23T02:39:34;25.17;;;19.97;;
13793;SDS011;31160;49.500;7.772;2023-05-23T02:42:01;22.17;;;18.97;;
13793;SDS011;31160;49.500;7.772;2023-05-23T02:44:30;29.17;;;20.17;;
13793;SDS011;31160;49.500;7.772;2023-05-23T02:46:57;24.13;;;19.30;;
13793;SDS011;31160;49.500;7.772;2023-05-23T02:49:24;24.73;;;20.23;;
13793;SDS011;31160;49.500;7.772;2023-05-23T02:51:51;25.00;;;21.00;;
13793;SDS011;31160;49.500;7.772;2023-05-23T02:54:18;27.00;;;21.07;;
13793;SDS011;31160;49.500;7.772;2023-05-23T02:56:44;25.10;;;20.50;;
13793;SDS011;31160;49.500;7.772;2023-05-23T02:59:11;27.63;;;21.60;;
13793;SDS011;31160;49.500;7.772;2023-05-23T03:01:38;28.43;;;21.13;;
13793;SDS011;31160;49.500;7.772;2023-05-23T03:04:05;22.53;;;20.10;;
13793;SDS011;31160;49.500;7.772;2023-05-23T03:06:33;24.47;;;20.73;;
13793;SDS011;31160;49.500;7.772;2023-05-23T03:09:02;27.87;;;21.73;;
13793;SDS011;31160;49.500;7.772;2023-05-23T03:11:29;23.60;;;21.10;;
13793;SDS011;31160;49.500;7.772;2023-05-23T03:13:58;29.23;;;21.60;;
13793;SDS011;31160;49.500;7.772;2023-05-23T03:16:24;22.57;;;19.77;;
13793;SDS011;31160;49.500;7.772;2023-05-23T03:18:52;26.07;;;21.43;;
13793;SDS011;31160;49.500;7.772;2023-05-23T03:21:18;27.13;;;20.97;;
13793;SDS011;31160;49.500;7.772;2023-05-23T03:23:46;23.87;;;19.87;;
13793;SDS011;31160;49.500;7.772;2023-05-23T03:26:12;23.93;;;19.83;;
13793;SDS011;31160;49.500;7.772;2023-05-23T03:28:39;23.70;;;20.00;;
13793;SDS011;31160;49.500;7.772;2023-05-23T03:31:06;25.13;;;20.27;;
13793;SDS011;31160;49.500;7.772;2023-05-23T03:33:33;25.07;;;20.47;;
13793;SDS011;31160;49.500;7.772;2023-05-23T03:36:02;25.17;;;21.77;;
13793;SDS011;31160;49.500;7.772;2023-05-23T03:38:29;25.63;;;20.83;;
13793;SDS011;31160;49.500;7.772;2023-05-23T03:40:56;23.87;;;20.13;;
13793;SDS011;31160;49.500;7.772;2023-05-23T03:43:23;25.77;;;20.50;;
13793;SDS011;31160;49.500;7.772;2023-05-23T03:45:50;25.70;;;20.83;;
13793;SDS011;31160;49.500;7.772;2023-05-23T03:48:17;25.77;;;20.27;;
13793;SDS011;31160;49.500;7.772;2023-05-23T03:50:45;26.03;;;20.93;;
13793;SDS011;31160;49.500;7.772;2023-05-23T03:53:13;23.73;;;19.13;;
13793;SDS011;31160;49.500;7.772;2023-05-23T03:55:40;25.53;;;20.67;;
13793;SDS011;31160;49.500;7.772;2023-05-23T03:58:08;24.40;;;20.27;;
13793;SDS011;31160;49.500;7.772;2023-05-23T04:00:35;21.60;;;19.27;;
13793;SDS011;31160;49.500;7.772;2023-05-23T04:03:05;22.37;;;19.57;;
13793;SDS011;31160;49.500;7.772;2023-05-23T04:05:32;21.57;;;18.93;;
13793;SDS011;31160;49.500;7.772;2023-05-23T04:07:59;22.83;;;18.93;;
13793;SDS011;31160;49.500;7.772;2023-05-23T04:10:29;23.13;;;19.17;;
13793;SDS011;31160;49.500;7.772;2023-05-23T04:12:57;25.17;;;19.00;;
13793;SDS011;31160;49.500;7.772;2023-05-23T04:15:24;19.60;;;17.43;;
13793;SDS011;31160;49.500;7.772;2023-05-23T04:17:56;20.40;;;17.57;;
13793;SDS011;31160;49.500;7.772;2023-05-23T04:20:25;24.70;;;16.87;;
13793;SDS011;31160;49.500;7.772;2023-05-23T04:22:52;21.70;;;18.13;;
13793;SDS011;31160;49.500;7.772;2023-05-23T04:25:18;21.50;;;18.97;;
13793;SDS011;31160;49.500;7.772;2023-05-23T04:27:57;25.20;;;19.57;;
13793;SDS011;31160;49.500;7.772;2023-05-23T04:30:24;23.13;;;19.47;;
13793;SDS011;31160;49.500;7.772;2023-05-23T04:32:51;22.30;;;18.20;;
13793;SDS011;31160;49.500;7.772;2023-05-23T04:35:19;23.63;;;18.17;;
13793;SDS011;31160;49.500;7.772;2023-05-23T04:37:46;22.13;;;17.33;;
13793;SDS011;31160;49.500;7.772;2023-05-23T04:40:13;20.63;;;17.33;;
13793;SDS011;31160;49.500;7.772;2023-05-23T04:43:03;20.57;;;16.87;;
13793;SDS011;31160;49.500;7.772;2023-05-23T04:45:36;19.10;;;16.60;;
13793;SDS011;31160;49.500;7.772;2023-05-23T04:48:15;19.07;;;16.47;;
13793;SDS011;31160;49.500;7.772;2023-05-23T04:50:46;18.47;;;16.40;;
13793;SDS011;31160;49.500;7.772;2023-05-23T04:53:14;19.20;;;16.60;;
13793;SDS011;31160;49.500;7.772;2023-05-23T04:55:41;16.30;;;14.57;;
13793;SDS011;31160;49.500;7.772;2023-05-23T04:58:12;17.77;;;15.87;;
13793;SDS011;31160;49.500;7.772;2023-05-23T05:00:40;17.17;;;15.10;;
13793;SDS011;31160;49.500;7.772;2023-05-23T05:03:07;15.33;;;13.60;;
13793;SDS011;31160;49.500;7.772;2023-05-23T05:05:41;19.30;;;13.77;;
13793;SDS011;31160;49.500;7.772;2023-05-23T05:08:07;16.27;;;13.30;;
13793;SDS011;31160;49.500;7.772;2023-05-23T05:10:34;16.13;;;12.17;;
13793;SDS011;31160;49.500;7.772;2023-05-23T05:13:01;15.93;;;12.83;;
13793;SDS011;31160;49.500;7.772;2023-05-23T05:15:36;16.40;;;12.50;;
13793;SDS011;31160;49.500;7.772;2023-05-23T05:18:03;14.23;;;11.87;;
13793;SDS011;31160;49.500;7.772;2023-05-23T05:20:30;14.40;;;12.30;;
13793;SDS011;31160;49.500;7.772;2023-05-23T05:22:57;14.00;;;11.93;;
13793;SDS011;31160;49.500;7.772;2023-05-23T05:25:23;14.53;;;11.57;;
13793;SDS011;31160;49.500;7.772;2023-05-23T05:27:52;14.37;;;10.60;;
13793;SDS011;31160;49.500;7.772;2023-05-23T05:30:20;14.33;;;11.07;;
13793;SDS011;31160;49.500;7.772;2023-05-23T05:32:59;14.70;;;10.73;;
13793;SDS011;31160;49.500;7.772;2023-05-23T05:35:27;13.33;;;10.63;;
13793;SDS011;31160;49.500;7.772;2023-05-23T05:37:54;12.73;;;9.80;;
13793;SDS011;31160;49.500;7.772;2023-05-23T05:40:22;11.90;;;9.20;;
13793;SDS011;31160;49.500;7.772;2023-05-23T05:42:49;12.70;;;9.40;;
13793;SDS011;31160;49.500;7.772;2023-05-23T05:45:16;11.40;;;8.50;;
13793;SDS011;31160;49.500;7.772;2023-05-23T05:47:45;11.97;;;8.93;;
13793;SDS011;31160;49.500;7.772;2023-05-23T05:50:12;9.43;;;7.67;;
13793;SDS011;31160;49.500;7.772;2023-05-23T05:52:39;10.27;;;8.73;;
13793;SDS011;31160;49.500;7.772;2023-05-23T05:55:08;9.10;;;7.67;;
13793;SDS011;31160;49.500;7.772;2023-05-23T05:57:43;10.93;;;6.80;;
13793;SDS011;31160;49.500;7.772;2023-05-23T06:00:11;13.47;;;7.20;;
13793;SDS011;31160;49.500;7.772;2023-05-23T06:02:44;13.70;;;7.67;;
13793;SDS011;31160;49.500;7.772;2023-05-23T06:05:37;9.57;;;7.47;;
13793;SDS011;31160;49.500;7.772;2023-05-23T06:08:04;11.57;;;8.43;;
13793;SDS011;31160;49.500;7.772;2023-05-23T06:10:32;10.07;;;8.10;;
13793;SDS011;31160;49.500;7.772;2023-05-23T06:12:59;12.37;;;7.97;;
13793;SDS011;31160;49.500;7.772;2023-05-23T06:15:26;12.17;;;7.90;;
13793;SDS011;31160;49.500;7.772;2023-05-23T06:17:52;9.23;;;7.53;;
13793;SDS011;31160;49.500;7.772;2023-05-23T06:20:20;11.57;;;8.20;;
13793;SDS011;31160;49.500;7.772;2023-05-23T06:22:48;9.03;;;6.80;;
13793;SDS011;31160;49.500;7.772;2023-05-23T06:25:14;9.97;;;7.30;;
13793;SDS011;31160;49.500;7.772;2023-05-23T06:27:41;9.53;;;6.73;;
13793;SDS011;31160;49.500;7.772;2023-05-23T06:30:10;10.73;;;7.73;;
13793;SDS011;31160;49.500;7.772;2023-05-23T06:32:37;11.37;;;6.83;;
13793;SDS011;31160;49.500;7.772;2023-05-23T06:35:05;9.43;;;7.30;;
13793;SDS011;31160;49.500;7.772;2023-05-23T06:37:32;6.83;;;6.10;;
13793;SDS011;31160;49.500;7.772;2023-05-23T06:39:59;8.17;;;6.67;;
13793;SDS011;31160;49.500;7.772;2023-05-23T06:42:26;9.13;;;6.60;;
13793;SDS011;31160;49.500;7.772;2023-05-23T06:45:02;8.63;;;5.90;;
13793;SDS011;31160;49.500;7.772;2023-05-23T06:47:30;8.60;;;4.63;;
13793;SDS011;31160;49.500;7.772;2023-05-23T06:49:57;7.50;;;5.43;;
13793;SDS011;31160;49.500;7.772;2023-05-23T06:52:24;6.97;;;5.17;;
13793;SDS011;31160;49.500;7.772;2023-05-23T06:54:51;8.90;;;5.23;;
13793;SDS011;31160;49.500;7.772;2023-05-23T06:57:18;6.87;;;5.40;;
13793;SDS011;31160;49.500;7.772;2023-05-23T06:59:45;5.40;;;4.60;;
13793;SDS011;31160;49.500;7.772;2023-05-23T07:02:12;7.50;;;5.10;;
13793;SDS011;31160;49.500;7.772;2023-05-23T07:04:38;5.97;;;4.50;;
13793;SDS011;31160;49.500;7.772;2023-05-23T07:07:13;5.23;;;4.20;;
13793;SDS011;31160;49.500;7.772;2023-05-23T07:09:41;4.57;;;3.77;;
13793;SDS011;31160;49.500;7.772;2023-05-23T07:12:13;6.50;;;4.10;;
13793;SDS011;31160;49.500;7.772;2023-05-23T07:14:42;6.23;;;3.73;;
13793;SDS011;31160;49.500;7.772;2023-05-23T07:17:10;4.93;;;3.80;;
13793;SDS011;31160;49.500;7.772;2023-05-23T07:19:37;4.13;;;3.57;;
13793;SDS011;31160;49.500;7.772;2023-05-23T07:22:04;4.87;;;3.90;;
13793;SDS011;31160;49.500;7.772;2023-05-23T07:24:34;4.53;;;3.60;;
13793;SDS011;31160;49.500;7.772;2023-05-23T07:27:04;4.63;;;3.70;;
13793;SDS011;31160;49.500;7.772;2023-05-23T07:29:32;8.80;;;3.70;;
13793;SDS011;31160;49.500;7.772;2023-05-23T07:31:59;4.97;;;4.03;;
13793;SDS011;31160;49.500;7.772;2023-05-23T07:34:27;4.20;;;3.80;;
13793;SDS011;31160;49.500;7.772;2023-05-23T07:36:57;4.33;;;3.77;;
13793;SDS011;31160;49.500;7.772;2023-05-23T07:39:29;6.20;;;3.70;;
13793;SDS011;31160;49.500;7.772;2023-05-23T07:41:58;4.53;;;3.80;;
13793;SDS011;31160;49.500;7.772;2023-05-23T07:44:25;4.17;;;3.70;;
13793;SDS011;31160;49.500;7.772;2023-05-23T07:46:52;5.50;;;3.97;;
13793;SDS011;31160;49.500;7.772;2023-05-23T07:49:20;4.67;;;3.60;;
13793;SDS011;31160;49.500;7.772;2023-05-23T07:51:47;5.17;;;4.37;;
13793;SDS011;31160;49.500;7.772;2023-05-23T07:54:13;4.37;;;3.97;;
13793;SDS011;31160;49.500;7.772;2023-05-23T07:56:42;4.50;;;3.70;;
13793;SDS011;31160;49.500;7.772;2023-05-23T07:59:09;4.03;;;3.50;;
13793;SDS011;31160;49.500;7.772;2023-05-23T08:01:36;4.83;;;3.50;;
13793;SDS011;31160;49.500;7.772;2023-05-23T08:04:05;4.87;;;3.40;;
13793;SDS011;31160;49.500;7.772;2023-05-23T08:06:44;5.27;;;3.80;;
13793;SDS011;31160;49.500;7.772;2023-05-23T08:09:40;6.23;;;3.97;;
13793;SDS011;31160;49.500;7.772;2023-05-23T08:12:09;4.20;;;3.77;;
13793;SDS011;31160;49.500;7.772;2023-05-23T08:14:37;4.40;;;4.00;;
13793;SDS011;31160;49.500;7.772;2023-05-23T08:17:22;5.20;;;3.97;;
13793;SDS011;31160;49.500;7.772;2023-05-23T08:19:50;5.57;;;4.07;;
13793;SDS011;31160;49.500;7.772;2023-05-23T08:22:16;5.63;;;3.73;;
13793;SDS011;31160;49.500;7.772;2023-05-23T08:24:43;4.83;;;4.33;;
13793;SDS011;31160;49.500;7.772;2023-05-23T08:27:10;5.93;;;4.50;;
13793;SDS011;31160;49.500;7.772;2023-05-23T08:29:37;4.50;;;3.73;;
13793;SDS011;31160;49.500;7.772;2023-05-23T08:32:04;5.80;;;4.10;;
13793;SDS011;31160;49.500;7.772;2023-05-23T08:34:32;4.60;;;4.03;;
13793;SDS011;31160;49.500;7.772;2023-05-23T08:36:59;5.07;;;4.33;;
13793;SDS011;31160;49.500;7.772;2023-05-23T08:39:26;4.10;;;3.70;;
13793;SDS011;31160;49.500;7.772;2023-05-23T08:42:07;4.57;;;4.00;;
13793;SDS011;31160;49.500;7.772;2023-05-23T08:44:34;5.43;;;4.00;;
13793;SDS011;31160;49.500;7.772;2023-05-23T08:47:02;4.77;;;4.07;;
13793;SDS011;31160;49.500;7.772;2023-05-23T08:49:51;4.80;;;4.10;;
13793;SDS011;31160;49.500;7.772;2023-05-23T08:52:23;4.10;;;3.70;;
13793;SDS011;31160;49.500;7.772;2023-05-23T08:54:54;5.20;;;3.23;;
13793;SDS011;31160;49.500;7.772;2023-05-23T08:57:21;3.70;;;3.40;;
13793;SDS011;31160;49.500;7.772;2023-05-23T08:59:54;4.07;;;3.53;;
13793;SDS011;31160;49.500;7.772;2023-05-23T09:02:22;3.60;;;3.20;;
13793;SDS011;31160;49.500;7.772;2023-05-23T09:04:54;3.77;;;3.40;;
13793;SDS011;31160;49.500;7.772;2023-05-23T09:07:23;3.83;;;3.43;;
13793;SDS011;31160;49.500;7.772;2023-05-23T09:09:51;4.20;;;3.57;;
13793;SDS011;31160;49.500;7.772;2023-05-23T09:12:18;3.63;;;3.30;;
13793;SDS011;31160;49.500;7.772;2023-05-23T09:14:48;3.57;;;3.20;;
13793;SDS011;31160;49.500;7.772;2023-05-23T09:17:19;6.57;;;3.17;;
13793;SDS011;31160;49.500;7.772;2023-05-23T09:19:46;3.77;;;3.10;;
13793;SDS011;31160;49.500;7.772;2023-05-23T09:22:23;3.53;;;3.20;;
13793;SDS011;31160;49.500;7.772;2023-05-23T09:25:12;3.97;;;3.10;;
13793;SDS011;31160;49.500;7.772;2023-05-23T09:27:41;3.70;;;3.30;;
13793;SDS011;31160;49.500;7.772;2023-05-23T09:30:14;5.27;;;3.20;;
13793;SDS011;31160;49.500;7.772;2023-05-23T09:32:41;3.33;;;2.80;;
13793;SDS011;31160;49.500;7.772;2023-05-23T09:35:09;4.03;;;2.67;;
13793;SDS011;31160;49.500;7.772;2023-05-23T09:37:40;3.37;;;3.07;;
13793;SDS011;31160;49.500;7.772;2023-05-23T09:40:12;3.13;;;2.83;;
13793;SDS011;31160;49.500;7.772;2023-05-23T09:42:50;3.37;;;2.80;;
13793;SDS011;31160;49.500;7.772;2023-05-23T09:45:17;3.20;;;2.90;;
13793;SDS011;31160;49.500;7.772;2023-05-23T09:47:53;3.77;;;3.10;;
13793;SDS011;31160;49.500;7.772;2023-05-23T09:50:20;3.33;;;2.97;;
13793;SDS011;31160;49.500;7.772;2023-05-23T09:52:49;3.33;;;3.03;;
13793;SDS011;31160;49.500;7.772;2023-05-23T09:55:18;3.40;;;2.80;;
13793;SDS011;31160;49.500;7.772;2023-05-23T09:57:45;3.77;;;3.00;;
13793;SDS011;31160;49.500;7.772;2023-05-23T10:00:18;2.80;;;2.43;;
13793;SDS011;31160;49.500;7.772;2023-05-23T10:05:45;4.13;;;2.70;;
13793;SDS011;31160;49.500;7.772;2023-05-23T10:08:15;2.63;;;2.43;;
13793;SDS011;31160;49.500;7.772;2023-05-23T10:11:00;2.57;;;2.23;;
13793;SDS011;31160;49.500;7.772;2023-05-23T10:13:54;2.93;;;2.63;;
13793;SDS011;31160;49.500;7.772;2023-05-23T10:16:26;2.67;;;2.47;;
13793;SDS011;31160;49.500;7.772;2023-05-23T10:19:00;4.90;;;2.90;;
13793;SDS011;31160;49.500;7.772;2023-05-23T10:21:34;4.33;;;3.07;;
13793;SDS011;31160;49.500;7.772;2023-05-23T10:24:04;4.53;;;3.20;;
13793;SDS011;31160;49.500;7.772;2023-05-23T10:26:33;4.63;;;3.50;;
13793;SDS011;31160;49.500;7.772;2023-05-23T10:29:00;3.17;;;2.87;;
13793;SDS011;31160;49.500;7.772;2023-05-23T10:31:28;4.57;;;3.20;;
13793;SDS011;31160;49.500;7.772;2023-05-23T10:36:56;5.93;;;3.70;;
13793;SDS011;31160;49.500;7.772;2023-05-23T10:42:16;4.83;;;3.70;;
13793;SDS011;31160;49.500;7.772;2023-05-23T10:44:45;4.57;;;3.80;;
13793;SDS011;31160;49.500;7.772;2023-05-23T10:47:12;4.07;;;3.67;;
13793;SDS011;31160;49.500;7.772;2023-05-23T10:49:51;4.47;;;3.90;;
13793;SDS011;31160;49.500;7.772;2023-05-23T10:52:21;7.00;;;3.67;;
13793;SDS011;31160;49.500;7.772;2023-05-23T10:54:53;5.73;;;3.97;;
13793;SDS011;31160;49.500;7.772;2023-05-23T10:57:22;4.97;;;3.90;;
13793;SDS011;31160;49.500;7.772;2023-05-23T10:59:54;4.60;;;3.50;;
13793;SDS011;31160;49.500;7.772;2023-05-23T11:02:24;4.00;;;3.67;;
13793;SDS011;31160;49.500;7.772;2023-05-23T11:05:17;5.07;;;3.87;;
13793;SDS011;31160;49.500;7.772;2023-05-23T11:08:05;3.63;;;3.27;;
13793;SDS011;31160;49.500;7.772;2023-05-23T11:10:58;5.00;;;3.80;;
13793;SDS011;31160;49.500;7.772;2023-05-23T11:16:31;6.33;;;4.30;;
13793;SDS011;31160;49.500;7.772;2023-05-23T11:21:48;6.23;;;4.83;;
13793;SDS011;31160;49.500;7.772;2023-05-23T11:24:19;5.23;;;4.10;;
13793;SDS011;31160;49.500;7.772;2023-05-23T11:26:57;6.20;;;4.83;;
13793;SDS011;31160;49.500;7.772;2023-05-23T11:29:29;5.60;;;4.20;;
13793;SDS011;31160;49.500;7.772;2023-05-23T11:31:56;10.87;;;6.27;;
13793;SDS011;31160;49.500;7.772;2023-05-23T11:34:26;9.73;;;5.53;;
13793;SDS011;31160;49.500;7.772;2023-05-23T11:36:53;6.00;;;4.03;;
13793;SDS011;31160;49.500;7.772;2023-05-23T11:39:21;6.20;;;4.43;;
13793;SDS011;31160;49.500;7.772;2023-05-23T11:41:58;4.83;;;4.33;;
13793;SDS011;31160;49.500;7.772;2023-05-23T11:44:26;4.77;;;4.27;;
13793;SDS011;31160;49.500;7.772;2023-05-23T11:47:00;8.03;;;5.50;;
13793;SDS011;31160;49.500;7.772;2023-05-23T11:49:35;9.63;;;4.97;;
13793;SDS011;31160;49.500;7.772;2023-05-23T11:52:04;9.60;;;6.07;;
13793;SDS011;31160;49.500;7.772;2023-05-23T11:54:34;5.13;;;4.37;;
13793;SDS011;31160;49.500;7.772;2023-05-23T11:57:01;12.30;;;8.50;;
13793;SDS011;31160;49.500;7.772;2023-05-23T11:59:28;5.47;;;3.60;;
13793;SDS011;31160;49.500;7.772;2023-05-23T12:01:55;5.70;;;4.20;;
13793;SDS011;31160;49.500;7.772;2023-05-23T12:04:23;5.73;;;4.40;;
13793;SDS011;31160;49.500;7.772;2023-05-23T12:06:52;6.13;;;4.60;;
13793;SDS011;31160;49.500;7.772;2023-05-23T12:09:19;5.37;;;4.87;;
13793;SDS011;31160;49.500;7.772;2023-05-23T12:11:47;5.37;;;4.53;;
13793;SDS011;31160;49.500;7.772;2023-05-23T12:14:15;6.03;;;5.37;;
13793;SDS011;31160;49.500;7.772;2023-05-23T12:16:43;5.10;;;4.60;;
13793;SDS011;31160;49.500;7.772;2023-05-23T12:19:12;7.17;;;4.40;;
13793;SDS011;31160;49.500;7.772;2023-05-23T12:21:45;6.07;;;5.00;;
13793;SDS011;31160;49.500;7.772;2023-05-23T12:24:18;6.00;;;5.10;;
13793;SDS011;31160;49.500;7.772;2023-05-23T12:29:14;6.37;;;4.97;;
13793;SDS011;31160;49.500;7.772;2023-05-23T12:31:43;6.37;;;5.30;;
13793;SDS011;31160;49.500;7.772;2023-05-23T12:34:11;6.00;;;4.80;;
13793;SDS011;31160;49.500;7.772;2023-05-23T12:36:38;7.43;;;5.47;;
13793;SDS011;31160;49.500;7.772;2023-05-23T12:39:15;7.53;;;5.03;;
13793;SDS011;31160;49.500;7.772;2023-05-23T12:41:42;7.33;;;5.57;;
13793;SDS011;31160;49.500;7.772;2023-05-23T12:44:10;5.87;;;5.23;;
13793;SDS011;31160;49.500;7.772;2023-05-23T12:46:41;5.70;;;5.20;;
13793;SDS011;31160;49.500;7.772;2023-05-23T12:49:08;7.03;;;5.57;;
13793;SDS011;31160;49.500;7.772;2023-05-23T12:51:36;9.30;;;5.40;;
13793;SDS011;31160;49.500;7.772;2023-05-23T12:54:02;10.30;;;5.77;;
13793;SDS011;31160;49.500;7.772;2023-05-23T12:56:29;5.93;;;5.33;;
13793;SDS011;31160;49.500;7.772;2023-05-23T12:58:56;5.50;;;4.37;;
13793;SDS011;31160;49.500;7.772;2023-05-23T13:01:23;5.87;;;4.50;;
13793;SDS011;31160;49.500;7.772;2023-05-23T13:03:50;5.13;;;4.07;;
13793;SDS011;31160;49.500;7.772;2023-05-23T13:06:17;4.93;;;4.43;;
13793;SDS011;31160;49.500;7.772;2023-05-23T13:08:44;7.53;;;4.70;;
13793;SDS011;31160;49.500;7.772;2023-05-23T13:11:11;4.80;;;4.30;;
13793;SDS011;31160;49.500;7.772;2023-05-23T13:13:38;6.07;;;4.90;;
13793;SDS011;31160;49.500;7.772;2023-05-23T13:16:05;6.97;;;5.80;;
13793;SDS011;31160;49.500;7.772;2023-05-23T13:18:32;5.63;;;4.87;;
13793;SDS011;31160;49.500;7.772;2023-05-23T13:20:59;6.43;;;5.23;;
13793;SDS011;31160;49.500;7.772;2023-05-23T13:23:25;6.10;;;4.90;;
13793;SDS011;31160;49.500;7.772;2023-05-23T13:25:52;11.40;;;5.97;;
13793;SDS011;31160;49.500;7.772;2023-05-23T13:28:19;10.10;;;5.07;;
13793;SDS011;31160;49.500;7.772;2023-05-23T13:30:46;6.73;;;5.30;;
13793;SDS011;31160;49.500;7.772;2023-05-23T13:33:13;6.03;;;4.93;;
13793;SDS011;31160;49.500;7.772;2023-05-23T13:35:40;6.43;;;5.10;;
13793;SDS011;31160;49.500;7.772;2023-05-23T13:38:08;7.63;;;5.23;;
13793;SDS011;31160;49.500;7.772;2023-05-23T13:40:35;8.20;;;5.57;;
13793;SDS011;31160;49.500;7.772;2023-05-23T13:43:02;5.13;;;4.63;;
13793;SDS011;31160;49.500;7.772;2023-05-23T13:45:28;8.27;;;5.43;;
13793;SDS011;31160;49.500;7.772;2023-05-23T13:47:56;6.60;;;4.80;;
13793;SDS011;31160;49.500;7.772;2023-05-23T13:50:23;6.80;;;5.87;;
13793;SDS011;31160;49.500;7.772;2023-05-23T13:52:49;5.97;;;5.37;;
13793;SDS011;31160;49.500;7.772;2023-05-23T13:55:16;6.13;;;5.53;;
13793;SDS011;31160;49.500;7.772;2023-05-23T13:57:44;7.57;;;4.70;;
13793;SDS011;31160;49.500;7.772;2023-05-23T14:00:11;8.50;;;5.70;;
13793;SDS011;31160;49.500;7.772;2023-05-23T14:02:39;7.77;;;5.90;;
13793;SDS011;31160;49.500;7.772;2023-05-23T14:05:06;6.77;;;5.13;;
13793;SDS011;31160;49.500;7.772;2023-05-23T14:07:33;8.47;;;5.53;;
13793;SDS011;31160;49.500;7.772;2023-05-23T14:10:00;6.20;;;5.07;;
13793;SDS011;31160;49.500;7.772;2023-05-23T14:12:27;5.73;;;5.10;;
13793;SDS011;31160;49.500;7.772;2023-05-23T14:14:54;5.83;;;4.77;;
13793;SDS011;31160;49.500;7.772;2023-05-23T14:17:21;6.57;;;5.53;;
13793;SDS011;31160;49.500;7.772;2023-05-23T14:19:47;9.23;;;5.10;;
13793;SDS011;31160;49.500;7.772;2023-05-23T14:22:14;7.27;;;5.40;;
13793;SDS011;31160;49.500;7.772;2023-05-23T14:24:41;6.33;;;5.10;;
13793;SDS011;31160;49.500;7.772;2023-05-23T14:27:08;6.27;;;5.27;;
13793;SDS011;31160;49.500;7.772;2023-05-23T14:29:36;7.57;;;6.20;;
13793;SDS011;31160;49.500;7.772;2023-05-23T14:32:04;8.80;;;5.83;;
13793;SDS011;31160;49.500;7.772;2023-05-23T14:34:31;7.57;;;6.03;;
13793;SDS011;31160;49.500;7.772;2023-05-23T14:36:59;7.27;;;6.00;;
13793;SDS011;31160;49.500;7.772;2023-05-23T14:39:26;6.57;;;5.70;;
13793;SDS011;31160;49.500;7.772;2023-05-23T14:41:54;9.33;;;5.63;;
13793;SDS011;31160;49.500;7.772;2023-05-23T14:44:21;8.43;;;5.50;;
13793;SDS011;31160;49.500;7.772;2023-05-23T14:46:48;8.80;;;5.23;;
13793;SDS011;31160;49.500;7.772;2023-05-23T14:49:15;8.43;;;5.67;;
13793;SDS011;31160;49.500;7.772;2023-05-23T14:51:43;10.70;;;6.90;;
13793;SDS011;31160;49.500;7.772;2023-05-23T14:54:16;7.60;;;5.47;;
13793;SDS011;31160;49.500;7.772;2023-05-23T14:56:43;7.90;;;5.13;;
13793;SDS011;31160;49.500;7.772;2023-05-23T14:59:10;6.80;;;5.57;;
13793;SDS011;31160;49.500;7.772;2023-05-23T15:01:37;7.93;;;5.53;;
13793;SDS011;31160;49.500;7.772;2023-05-23T15:04:06;8.07;;;5.70;;
13793;SDS011;31160;49.500;7.772;2023-05-23T15:06:35;9.47;;;5.57;;
13793;SDS011;31160;49.500;7.772;2023-05-23T15:09:03;9.07;;;4.90;;
13793;SDS011;31160;49.500;7.772;2023-05-23T15:11:30;9.90;;;4.90;;
13793;SDS011;31160;49.500;7.772;2023-05-23T15:13:57;6.10;;;3.90;;
13793;SDS011;31160;49.500;7.772;2023-05-23T15:16:25;7.40;;;4.70;;